Data for 08/19/2008

Time Sea-Level Adjusted Pressure Absolute Pressure Temperature Relative Humidity Dew Point   
(mb) (inHg) (mb) (inHg) (C) (F) (%) (C) (F)
00:05 1013 29.91 843 24.89 21.6 70.9 26 1.5 34.7
00:10 1013 29.91 843 24.89 21.8 71.2 26 1.5 34.7
00:15 1013 29.91 843 24.89 21.5 70.7 26 1.1 34.1
00:20 1013 29.91 843 24.89 21.8 71.2 26 1.5 34.7
00:25 1013 29.91 843 24.89 21.4 70.6 27 1.6 34.9
00:30 1013 29.91 843 24.89 21.3 70.4 27 1.5 34.7
00:35 1013 29.91 843 24.89 21.3 70.3 27 1.5 34.6
00:40 1013 29.91 843 24.89 21.3 70.3 25 0.9 33.6
00:45 1013 29.91 843 24.89 21.6 70.8 25 1 33.9
00:50 1013 29.91 843 24.89 21.4 70.4 26 1.2 34.1
00:55 1013 29.91 842 24.86 21.1 69.9 26 1.3 34.3
01:00 1013 29.91 842 24.86 21 69.7 27 1.3 34.3
01:05 1013 29.91 842 24.86 21.1 69.9 25 0.6 33.1
01:10 1013 29.91 842 24.86 21.4 70.5 26 1.1 33.9
01:15 1013 29.91 842 24.86 21.2 70.1 26 1 33.8
01:20 1013 29.91 842 24.86 21.1 69.9 26 0.8 33.4
01:25 1013 29.91 842 24.86 21.3 70.4 26 1.1 34
01:30 1013 29.91 842 24.86 21.1 70 26 0.9 33.6
01:35 1013 29.91 842 24.86 20.8 69.4 26 1 33.8
01:40 1013 29.91 842 24.86 20.9 69.6 26 0.6 33.1
01:45 1013 29.91 842 24.86 21 69.9 26 0.8 33.4
01:50 1013 29.91 842 24.86 20.7 69.3 26 0.7 33.3
01:55 1013 29.91 842 24.86 20.6 69.1 26 0.4 32.7
02:00 1013 29.91 842 24.86 20.8 69.4 25 0.2 32.4
02:05 1013 29.91 842 24.86 21 69.7 25 0.1 32.2
02:10 1013 29.91 842 24.86 20.9 69.7 25 0.2 32.3
02:15 1013 29.91 842 24.86 20.8 69.4 28 1.9 35.5
02:20 1013 29.91 842 24.86 20.5 68.8 26 0.3 32.5
02:25 1013 29.91 842 24.86 20.5 68.8 26 0.5 32.9
02:30 1013 29.91 842 24.86 20.4 68.7 25 0.1 32.3
02:35 1013 29.91 842 24.86 20.7 69.3 24 -0.3 31.4
02:40 1013 29.91 842 24.86 21.2 70.1 24 0.2 32.4
02:45 1013 29.91 842 24.86 21 69.8 23 -0.5 31.1
02:50 1013 29.91 842 24.86 21.5 70.7 22 -0.9 30.4
02:55 1013 29.91 842 24.86 21.7 71.1 24 0.3 32.6
03:00 1013 29.91 842 24.86 20.8 69.5 25 0.4 32.8
03:05 1013 29.91 842 24.86 20.6 69.1 24 -0.4 31.2
03:10 1013 29.91 842 24.86 20.5 69 25 -0.2 31.6
03:15 1013 29.91 842 24.86 20.7 69.3 25 0.1 32.2
03:20 1013 29.91 842 24.86 20.5 68.9 25 -0.1 31.8
03:25 1013 29.91 842 24.86 20.8 69.4 23 -0.8 30.6
03:30 1013 29.91 842 24.86 20.8 69.4 26 0.9 33.7
03:35 1013 29.91 843 24.89 19.9 67.8 30 2 35.6
03:40 1013 29.91 843 24.89 19 66.2 30 1 33.8
03:45 1014 29.94 843 24.89 19 66.2 30 1.4 34.5
03:50 1014 29.94 843 24.89 18.8 65.8 29 0.7 33.3
03:55 1013 29.91 843 24.89 19.5 67.1 29 1.1 34
04:00 1014 29.94 843 24.89 19 66.3 29 0.7 33.3
04:05 1013 29.91 843 24.89 19.3 66.7 29 0.9 33.6
04:10 1014 29.94 843 24.89 19.2 66.6 29 0.8 33.5
04:15 1014 29.94 843 24.89 18.8 65.9 32 1.9 35.4
04:20 1014 29.94 843 24.89 18.1 64.6 32 1.3 34.3
04:25 1014 29.94 843 24.89 17.9 64.2 30 0.1 32.2
04:30 1013 29.91 843 24.89 17.9 64.3 30 0.3 32.5
04:35 1013 29.91 843 24.89 18.5 65.2 31 1.1 34
04:40 1013 29.91 843 24.89 18.2 64.7 31 0.9 33.6
04:45 1013 29.91 843 24.89 17.9 64.2 30 0.3 32.5
04:50 1013 29.91 843 24.89 18.3 64.9 29 -0 31.9
04:55 1013 29.91 843 24.89 18.2 64.7 30 0.4 32.7
05:00 1013 29.91 843 24.89 18 64.3 30 0.4 32.8
05:05 1013 29.91 843 24.89 18.1 64.5 29 0.1 32.2
05:10 1013 29.91 843 24.89 17.9 64.3 31 0.7 33.3
05:15 1013 29.91 842 24.86 17.6 63.6 30 0.1 32.2
05:20 1013 29.91 842 24.86 17.9 64.3 29 -0.5 31.2
05:25 1013 29.91 842 24.86 18.2 64.8 28 -0.6 31
05:30 1013 29.91 842 24.86 18.7 65.6 27 -0.5 31.1
05:35 1013 29.91 842 24.86 18.9 66.1 27 -0.5 31.1
05:40 1013 29.91 842 24.86 19 66.3 26 -0.6 30.9
05:45 1013 29.91 842 24.86 19.3 66.7 26 -0.4 31.3
05:50 1013 29.91 842 24.86 19.2 66.5 27 -0.1 31.8
05:55 1013 29.91 842 24.86 19 66.3 27 -0 31.9
06:00 1013 29.91 842 24.86 19.1 66.4 27 -0.3 31.5
06:05 1013 29.91 842 24.86 19.3 66.7 26 -0.5 31.1
06:10 1014 29.94 843 24.89 19.3 66.8 28 0.7 33.3
06:15 1013 29.91 843 24.89 18.7 65.6 29 0.5 32.9
06:20 1013 29.91 843 24.89 18.6 65.5 29 0.3 32.5
06:25 1013 29.91 843 24.89 18.6 65.5 28 0 32.1
06:30 1013 29.91 843 24.89 18.8 65.8 26 -1.2 29.8
06:35 1013 29.91 843 24.89 19.3 66.8 27 -0 31.9
06:40 1013 29.91 843 24.89 19.4 66.8 27 -0.1 31.9
06:45 1013 29.91 843 24.89 19.2 66.5 29 1 33.7
06:50 1014 29.94 843 24.89 18.9 66 30 1.1 34.1
06:55 1014 29.94 843 24.89 19.2 66.6 29 0.8 33.5
07:00 1014 29.94 843 24.89 19.5 67.1 27 -0 32
07:05 1014 29.94 843 24.89 19.7 67.4 27 0.1 32.2
07:10 1014 29.94 843 24.89 18.9 66 31 1.6 34.9
07:15 1014 29.94 843 24.89 18.3 64.9 37 3.3 38
07:20 1014 29.94 843 24.89 17.1 62.8 41 3.9 39
07:25 1014 29.94 843 24.89 16.5 61.7 43 3.8 38.9
07:30 1014 29.94 843 24.89 16.3 61.4 40 2.7 36.8
07:35 1014 29.94 843 24.89 16.7 62 39 2.6 36.6
07:40 1014 29.94 843 24.89 17 62.6 37 2.2 36
07:45 1014 29.94 843 24.89 17.7 63.9 36 2.5 36.5
07:50 1014 29.94 843 24.89 17.8 64.1 34 2.1 35.7
07:55 1014 29.94 843 24.89 18.6 65.5 30 1 33.8
08:00 1014 29.94 843 24.89 19.5 67.1 28 0.6 33.1
08:05 1014 29.94 843 24.89 19.8 67.7 30 2.1 35.8
08:10 1014 29.94 843 24.89 19.6 67.2 32 2.4 36.3
08:15 1014 29.94 843 24.89 19.6 67.2 32 2.6 36.7
08:20 1014 29.94 843 24.89 19.9 67.9 32 2.9 37.3
08:25 1014 29.94 843 24.89 20.3 68.5 30 2.5 36.5
08:30 1014 29.94 843 24.89 20.6 69.1 29 2.4 36.2
08:35 1014 29.94 843 24.89 20.8 69.5 30 3 37.3
08:40 1014 29.94 843 24.89 21.1 70 28 2 35.6
08:45 1014 29.94 843 24.89 21.8 71.2 30 3.6 38.6
08:50 1014 29.94 843 24.89 22 71.7 28 2.9 37.2
08:55 1014 29.94 843 24.89 22.7 72.8 28 3.6 38.5
09:00 1014 29.94 843 24.89 23.1 73.5 26 2.9 37.1
09:05 1014 29.94 843 24.89 23 73.4 26 2.7 36.8
09:10 1014 29.94 843 24.89 23.2 73.7 28 3.7 38.7
09:15 1014 29.94 843 24.89 23.6 74.5 27 3.9 38.9
09:20 1014 29.94 843 24.89 24.3 75.7 30 5.7 42.3
09:25 1014 29.94 843 24.89 23.9 75 26 3.6 38.5
09:30 1014 29.94 843 24.89 24.5 76.1 24 2.9 37.2
09:35 1014 29.94 843 24.89 25.2 77.4 23 2.8 37
09:40 1014 29.94 843 24.89 24.6 76.2 27 4.4 39.9
09:45 1014 29.94 843 24.89 24.4 75.9 26 3.7 38.7
09:50 1014 29.94 843 24.89 25.3 77.6 25 4.4 39.9
09:55 1014 29.94 843 24.89 25.4 77.7 24 3.9 38.9
10:00 1013 29.91 843 24.89 25.3 77.5 25 4 39.2
10:05 1013 29.91 843 24.89 25.9 78.6 23 3.6 38.4
10:10 1013 29.91 843 24.89 26 78.9 24 4.1 39.3
10:15 1013 29.91 843 24.89 26.3 79.3 22 3.4 38.2
10:20 1013 29.91 843 24.89 26.9 80.4 22 4 39.1
10:25 1013 29.91 842 24.86 27.6 81.7 21 4 39.1
10:30 1013 29.91 842 24.86 27.8 82 21 3.5 38.3
10:35 1013 29.91 842 24.86 28 82.3 21 4.2 39.5
10:40 1013 29.91 842 24.86 28.3 82.9 20 3.7 38.6
10:45 1013 29.91 842 24.86 27.6 81.6 20 2.7 36.8
10:50 1013 29.91 842 24.86 27.3 81.1 20 2.4 36.3
10:55 1013 29.91 842 24.86 27.8 82 20 3 37.4
11:00 1013 29.91 842 24.86 28.4 83.1 20 3.4 38.2
11:05 1013 29.91 842 24.86 28.4 83.1 19 2.8 37.1
11:10 1013 29.91 842 24.86 28.5 83.3 19 2.9 37.2
11:15 1013 29.91 842 24.86 28.5 83.2 18 2.5 36.5
11:20 1013 29.91 842 24.86 28.5 83.2 18 1.8 35.2
11:25 1013 29.91 842 24.86 28.2 82.8 17 1.2 34.1
11:30 1013 29.91 842 24.86 28.4 83.1 19 3 37.5
11:35 1013 29.91 842 24.86 29 84.2 19 3.2 37.8
11:40 1013 29.91 842 24.86 29.2 84.5 19 3.9 38.9
11:45 1013 29.91 842 24.86 28.5 83.3 20 3.3 38
11:50 1013 29.91 842 24.86 28.3 82.9 21 3.9 39
11:55 1013 29.91 842 24.86 28.5 83.3 20 3.7 38.6
12:00 1013 29.91 842 24.86 28.7 83.7 20 3.5 38.3
12:05 1013 29.91 842 24.86 29.6 85.3 19 4.3 39.7
12:10 1013 29.91 842 24.86 30.5 86.9 18 4.2 39.5
12:15 1013 29.91 842 24.86 30.8 87.4 18 4 39.1
12:20 1013 29.91 842 24.86 31 87.9 18 4.2 39.6
12:25 1012 29.88 842 24.86 30.8 87.5 19 4.7 40.4
12:30 1012 29.88 842 24.86 29.8 85.6 19 3.8 38.8
12:35 1012 29.88 842 24.86 29.7 85.4 18 2.8 37
12:40 1012 29.88 842 24.86 30.2 86.3 19 4.1 39.3
12:45 1012 29.88 842 24.86 30.8 87.5 16 2.8 37.1
12:50 1012 29.88 842 24.86 31.2 88.2 15 2.3 36.1
12:55 1012 29.88 841 24.83 30.2 86.4 18 3.6 38.4
13:00 1012 29.88 841 24.83 29.5 85 19 3.5 38.3
13:05 1012 29.88 841 24.83 29.8 85.6 19 4.2 39.5
13:10 1012 29.88 841 24.83 29.6 85.3 19 4 39.2
13:15 1012 29.88 841 24.83 29.9 85.9 18 3.5 38.3
13:20 1012 29.88 841 24.83 30.9 87.6 19 4.8 40.7
13:25 1012 29.88 841 24.83 30.8 87.5 17 3.7 38.7
13:30 1012 29.88 841 24.83 31.9 89.5 15 2.7 36.9
13:35 1012 29.88 841 24.83 32.2 90 15 2.4 36.3
13:40 1012 29.88 841 24.83 32.3 90.1 15 2.5 36.4
13:45 1012 29.88 841 24.83 32.5 90.5 14 2.2 35.9
13:50 1012 29.88 841 24.83 32.8 91 15 3 37.3
13:55 1012 29.88 841 24.83 32.7 90.8 14 2.5 36.5
14:00 1011 29.85 841 24.83 32.8 91 15 3 37.5
14:05 1011 29.85 841 24.83 31.8 89.2 15 2.2 36
14:10 1011 29.85 841 24.83 31.9 89.5 15 2.1 35.8
14:15 1011 29.85 841 24.83 32.4 90.4 14 2.4 36.2
14:20 1011 29.85 841 24.83 32.6 90.7 15 2.8 37
14:25 1011 29.85 841 24.83 33.7 92.6 13 1.9 35.4
14:30 1011 29.85 840 24.81 33.7 92.7 13 1.9 35.4
14:35 1011 29.85 840 24.81 33.6 92.4 13 2.1 35.8
14:40 1011 29.85 840 24.81 33.4 92.1 13 1.4 34.5
14:45 1011 29.85 840 24.81 33.1 91.5 13 1.1 33.9
14:50 1011 29.85 840 24.81 33 91.3 14 2.2 36
14:55 1011 29.85 840 24.81 32.5 90.5 14 1.6 35
15:00 1011 29.85 840 24.81 32.4 90.4 14 1.9 35.4
15:05 1011 29.85 840 24.81 32.5 90.5 13 1.3 34.4
15:10 1011 29.85 840 24.81 32.1 89.7 14 1.6 35
15:15 1011 29.85 840 24.81 32 89.6 13 1.1 33.9
15:20 1011 29.85 840 24.81 31.7 89.1 14 1 33.7
15:25 1011 29.85 840 24.81 31.5 88.7 14 1.5 34.7
15:30 1011 29.85 840 24.81 31.5 88.6 14 0.7 33.3
15:35 1011 29.85 840 24.81 31.3 88.3 14 1.4 34.4
15:40 1011 29.85 840 24.81 31.1 88 14 1.2 34.2
15:45 1011 29.85 840 24.81 31.1 88 12 -1.4 29.6
15:50 1011 29.85 840 24.81 31.2 88.1 12 -1.2 29.9
15:55 1011 29.85 840 24.81 31.2 88.1 12 -1.5 29.3
16:00 1011 29.85 840 24.81 31.3 88.3 13 0.1 32.1
16:05 1011 29.85 840 24.81 31.2 88.1 13 -0.6 31
16:10 1011 29.85 840 24.81 31.4 88.6 12 -0.7 30.8
16:15 1011 29.85 840 24.81 31.4 88.5 12 -1.3 29.7
16:20 1011 29.85 840 24.81 31.4 88.5 12 -0.9 30.3
16:25 1011 29.85 840 24.81 31.4 88.5 12 -1 30.2
16:30 1011 29.85 840 24.81 31.7 89 12 -0.4 31.3
16:35 1011 29.85 840 24.81 31.7 89.1 12 -0.7 30.7
16:40 1011 29.85 840 24.81 31.5 88.7 14 0.7 33.3
16:45 1011 29.85 840 24.81 31.4 88.5 13 -0 32
16:50 1011 29.85 840 24.81 31 87.7 14 1 33.9
16:55 1011 29.85 840 24.81 30.6 87 14 0.2 32.4
17:00 1011 29.85 840 24.81 30.3 86.5 14 0.1 32.2
17:05 1011 29.85 840 24.81 30.1 86.2 14 -0.1 31.7
17:10 1011 29.85 840 24.81 29.9 85.8 15 0.9 33.6
17:15 1011 29.85 840 24.81 29.8 85.7 14 -0.5 31.1
17:20 1011 29.85 840 24.81 30.3 86.5 14 -0 32
17:25 1011 29.85 840 24.81 30.3 86.5 14 0.3 32.6
17:30 1011 29.85 840 24.81 30.2 86.3 14 0.5 32.9
17:35 1011 29.85 840 24.81 30 86 14 0.1 32.2
17:40 1011 29.85 840 24.81 30.1 86.1 14 -0.2 31.6
17:45 1011 29.85 840 24.81 30 86 17 2.7 36.8
17:50 1011 29.85 840 24.81 29.9 85.8 14 -0 31.9
17:55 1011 29.85 840 24.81 29.9 85.8 15 0.4 32.7
18:00 1011 29.85 840 24.81 29.9 85.9 17 2.6 36.7
18:05 1011 29.85 840 24.81 29.9 85.8 16 1.8 35.2
18:10 1011 29.85 840 24.81 29.8 85.6 17 2.5 36.6
18:15 1011 29.85 840 24.81 29.6 85.2 19 4.1 39.4
18:20 1011 29.85 840 24.81 29.3 84.7 16 0.9 33.6
18:25 1011 29.85 840 24.81 29.3 84.7 15 0.5 32.8
18:30 1011 29.85 840 24.81 29.1 84.5 15 -0.2 31.7
18:35 1011 29.85 840 24.81 29.3 84.8 14 -0.1 31.7
18:40 1011 29.85 840 24.81 29.3 84.8 15 0.1 32.2
18:45 1011 29.85 840 24.81 29.5 85 15 0.4 32.7
18:50 1011 29.85 840 24.81 29.6 85.2 15 0.8 33.4
18:55 1011 29.85 840 24.81 29.5 85.1 20 4.7 40.5
19:00 1011 29.85 840 24.81 28.7 83.6 23 5.9 42.7
19:05 1011 29.85 840 24.81 27.8 82 24 5.7 42.3
19:10 1011 29.85 840 24.81 27.2 81 25 5.5 41.9
19:15 1011 29.85 840 24.81 27.4 81.3 23 4.5 40.1
19:20 1011 29.85 840 24.81 27.3 81.2 23 4.9 40.7
19:25 1011 29.85 840 24.81 27.5 81.5 24 5.2 41.4
19:30 1011 29.85 840 24.81 27.5 81.4 24 5.3 41.6
19:35 1011 29.85 840 24.81 27.3 81.1 26 6.3 43.4
19:40 1011 29.85 840 24.81 27.2 81 26 6.1 43
19:45 1011 29.85 840 24.81 27.1 80.7 25 5.9 42.6
19:50 1011 29.85 840 24.81 26.8 80.3 25 5.6 42.1
19:55 1011 29.85 841 24.83 26.6 79.9 26 6 42.8
20:00 1011 29.85 841 24.83 26.4 79.6 28 6.5 43.7
20:05 1011 29.85 841 24.83 26.2 79.1 27 6.1 42.9
20:10 1012 29.88 841 24.83 25.9 78.6 29 6.5 43.7
20:15 1012 29.88 841 24.83 25.4 77.7 29 6.4 43.5
20:20 1012 29.88 841 24.83 24.8 76.7 31 7 44.5
20:25 1012 29.88 841 24.83 24.1 75.4 33 6.8 44.3
20:30 1012 29.88 841 24.83 23.8 74.8 33 6.9 44.5
20:35 1012 29.88 841 24.83 23.5 74.2 34 6.9 44.4
20:40 1012 29.88 841 24.83 23.1 73.6 36 7.3 45.2
20:45 1012 29.88 842 24.86 22.6 72.8 38 7.8 46
20:50 1013 29.91 842 24.86 22.2 71.9 39 7.9 46.3
20:55 1013 29.91 842 24.86 21.9 71.4 40 7.8 46.1
21:00 1013 29.91 842 24.86 21.8 71.2 40 7.8 46.1
21:05 1013 29.91 842 24.86 21.7 71.1 40 7.7 45.9
21:10 1013 29.91 842 24.86 21.7 71 41 8.1 46.7
21:15 1013 29.91 842 24.86 21.2 70.2 46 9.1 48.5
21:20 1013 29.91 842 24.86 20.4 68.8 44 7.9 46.3
21:25 1013 29.91 842 24.86 20.7 69.2 43 8 46.4
21:30 1013 29.91 842 24.86 20.7 69.2 42 7.6 45.7
21:35 1013 29.91 842 24.86 20.8 69.4 43 7.7 45.9
21:40 1013 29.91 842 24.86 20.7 69.3 43 7.9 46.3
21:45 1013 29.91 842 24.86 20.6 69 43 7.8 46
21:50 1013 29.91 842 24.86 20.6 69 44 7.9 46.2
21:55 1013 29.91 842 24.86 20.3 68.6 45 8 46.4
22:00 1013 29.91 842 24.86 20.3 68.6 44 7.8 46.1
22:05 1013 29.91 842 24.86 20.4 68.7 45 8.1 46.5
22:10 1013 29.91 842 24.86 20.2 68.3 45 8.2 46.7
22:15 1013 29.91 842 24.86 20.3 68.5 45 8 46.4
22:20 1013 29.91 842 24.86 20.1 68.2 46 8.2 46.7
22:25 1013 29.91 842 24.86 20.1 68.1 45 7.8 46.1
22:30 1013 29.91 842 24.86 20.1 68.2 45 7.8 46
22:35 1013 29.91 842 24.86 20 68 46 8.3 46.9
22:40 1013 29.91 842 24.86 19.9 67.8 49 9 48.2
22:45 1013 29.91 842 24.86 19.9 67.7 45 7.7 45.8
22:50 1013 29.91 842 24.86 19.9 67.7 45 7.6 45.7
22:55 1013 29.91 842 24.86 19.8 67.6 45 7.7 45.9
23:00 1013 29.91 842 24.86 19.6 67.3 45 7.5 45.5
23:05 1013 29.91 842 24.86 19.6 67.4 45 7.5 45.6
23:10 1013 29.91 842 24.86 19.5 67 45 7.4 45.4
23:15 1013 29.91 842 24.86 19.4 66.9 47 7.8 46.1
23:20 1013 29.91 842 24.86 19.1 66.4 48 7.9 46.2
23:25 1013 29.91 842 24.86 18.8 65.9 48 7.6 45.8
23:30 1013 29.91 842 24.86 19 66.1 47 7.4 45.4
23:35 1013 29.91 842 24.86 18.9 66 47 7.6 45.6
23:40 1013 29.91 842 24.86 18.7 65.7 48 7.6 45.6
23:45 1013 29.91 842 24.86 18.6 65.4 48 7.5 45.4
23:50 1013 29.91 842 24.86 18.5 65.2 49 7.6 45.7
23:55 1013 29.91 842 24.86 18.1 64.6 51 7.9 46.2
24:00 1013 29.91 842 24.86 18 64.3 51 7.8 46